Time;durP1;ratioP1;P1;durP2;ratioP2;P2;SDS_P1;SDS_P2;PMS_P1;PMS_P2;Temp;Humidity;BMP_temperature;BMP_pressure;BME280_temperature;BME280_humidity;BME280_pressure;Samples;Min_cycle;Max_cycle;Signal;HPM_P1;HPM_P2
2021/09/26 00:01:03;;;;;;;0.20;0.20;;;;;;;18.51;62.86;101463.56;5094505;28;20044;-85
2021/09/26 00:03:30;;;;;;;0.85;0.85;;;;;;;18.52;62.83;101461.78;5095111;28;20040;-86
2021/09/26 00:05:56;;;;;;;0.17;0.17;;;;;;;18.55;62.88;101469.66;5096231;28;20064;-84
2021/09/26 00:08:23;;;;;;;0.60;0.60;;;;;;;18.57;62.78;101459.75;5095305;28;20028;-83
2021/09/26 00:10:49;;;;;;;0.40;0.40;;;;;;;18.58;62.86;101462.34;5097031;28;20467;-79
2021/09/26 00:13:16;;;;;;;0.20;0.20;;;;;;;18.59;63.01;101458.75;5095581;28;20036;-78
2021/09/26 00:15:42;;;;;;;0.10;0.10;;;;;;;18.62;62.94;101462.22;5093329;28;20033;-77
2021/09/26 00:18:09;;;;;;;0.20;0.20;;;;;;;18.65;63.16;101468.31;5095284;28;20064;-78
2021/09/26 00:20:35;;;;;;;0.10;0.10;;;;;;;18.67;62.96;101463.75;5094603;28;20077;-78
2021/09/26 00:23:02;;;;;;;0.43;0.43;;;;;;;18.70;63.09;101465.44;5094965;28;20032;-78
2021/09/26 00:25:29;;;;;;;0.10;0.10;;;;;;;18.70;63.09;101460.94;5094139;28;20028;-78
2021/09/26 00:27:55;;;;;;;0.10;0.10;;;;;;;18.75;62.76;101463.41;5095200;28;20035;-78
2021/09/26 00:30:22;;;;;;;0.10;0.10;;;;;;;18.75;63.03;101464.31;5095012;28;20146;-78
2021/09/26 00:32:49;;;;;;;0.30;0.30;;;;;;;18.80;62.81;101460.53;5094991;28;20031;-78
2021/09/26 00:35:17;;;;;;;0.75;0.75;;;;;;;18.83;62.92;101460.38;5095167;28;20182;-77
2021/09/26 00:37:45;;;;;;;0.15;0.15;;;;;;;18.83;63.31;101461.28;5094669;28;20030;-78
2021/09/26 00:40:12;;;;;;;0.20;0.20;;;;;;;18.84;63.04;101462.13;5094750;28;20024;-78
2021/09/26 00:42:39;;;;;;;0.10;0.10;;;;;;;18.86;62.80;101457.56;5094590;28;20432;-78
2021/09/26 00:45:06;;;;;;;0.20;0.20;;;;;;;18.84;63.06;101457.66;5094266;28;20032;-78
2021/09/26 00:47:33;;;;;;;2.80;0.85;;;;;;;18.85;62.80;101453.16;5094697;28;20020;-77
2021/09/26 00:49:59;;;;;;;0.30;0.30;;;;;;;18.88;62.90;101455.72;5093446;28;20060;-77
2021/09/26 00:52:25;;;;;;;0.10;0.10;;;;;;;18.88;62.75;101461.06;5094607;28;20036;-78
2021/09/26 00:54:52;;;;;;;0.08;0.08;;;;;;;18.89;63.02;101460.09;5094757;28;20038;-79
2021/09/26 00:57:20;;;;;;;0.20;0.20;;;;;;;18.87;63.17;101456.66;5094337;28;20047;-77
2021/09/26 00:59:46;;;;;;;0.10;0.10;;;;;;;18.86;62.65;101463.81;5094361;28;20020;-82
2021/09/26 01:02:13;;;;;;;0.10;0.10;;;;;;;18.85;62.76;101466.56;5093693;28;20035;-81
2021/09/26 01:04:39;;;;;;;1.48;1.15;;;;;;;18.83;62.91;101461.28;5093848;28;20558;-85
2021/09/26 01:07:15;;;;;;;0.32;0.32;;;;;;;18.85;62.80;101463.88;5094223;28;20036;-82
2021/09/26 01:09:56;;;;;;;0.52;0.50;;;;;;;18.84;63.24;101462.13;5094317;28;20057;-84
2021/09/26 01:12:54;;;;;;;0.40;0.40;;;;;;;18.83;62.97;101460.38;5094344;28;20028;-85
2021/09/26 01:16:00;;;;;;;1.35;1.33;;;;;;;18.83;63.15;101455.91;5094050;28;20028;-82
2021/09/26 01:33:20;;;;;;;0.10;0.10;;;;;;;18.61;63.45;101426.47;5070580;28;20754;-82
2021/09/26 01:35:58;;;;;;;0.20;0.20;;;;;;;18.60;63.45;101432.75;5070926;28;20091;-80
2021/09/26 01:38:32;;;;;;;0.20;0.20;;;;;;;18.57;63.76;101427.56;5070662;28;20060;-83
2021/09/26 01:41:09;;;;;;;0.10;0.10;;;;;;;18.56;63.74;101421.28;5070522;28;20106;-85
2021/09/26 01:43:41;;;;;;;2.17;1.15;;;;;;;18.55;63.72;101424.06;5070328;28;20547;-81
2021/09/26 01:46:12;;;;;;;0.82;0.82;;;;;;;18.54;63.45;101427.66;5070280;28;20484;-76
2021/09/26 01:48:53;;;;;;;0.10;0.10;;;;;;;18.55;63.73;101424.06;5070240;28;20032;-77
2021/09/26 01:51:21;;;;;;;0.05;0.05;;;;;;;18.52;63.66;101424.19;5070302;28;20033;-77
2021/09/26 01:53:49;;;;;;;0.20;0.20;;;;;;;18.49;63.96;101427.91;5070239;28;20037;-77
2021/09/26 01:56:16;;;;;;;0.10;0.10;;;;;;;18.51;63.37;101425.13;5070344;28;20029;-76
2021/09/26 01:58:46;;;;;;;0.10;0.10;;;;;;;18.52;63.68;101424.19;5070577;28;20084;-79
2021/09/26 02:01:15;;;;;;;0.30;0.30;;;;;;;18.50;64.20;101421.56;5070257;28;20025;-76
2021/09/26 02:03:42;;;;;;;0.30;0.30;;;;;;;18.52;63.39;101413.47;5070143;28;20383;-76
2021/09/26 02:06:10;;;;;;;0.40;0.40;;;;;;;18.53;63.69;101423.22;5070117;28;20107;-77
2021/09/26 02:08:39;;;;;;;0.20;0.20;;;;;;;18.53;63.58;101417.88;5070996;28;20486;-86
2021/09/26 02:11:07;;;;;;;0.40;0.40;;;;;;;18.54;63.36;101416.94;5070004;28;20048;-87
2021/09/26 02:13:34;;;;;;;0.22;0.22;;;;;;;18.53;63.43;101421.44;5069978;28;20052;-85
2021/09/26 02:16:01;;;;;;;0.10;0.10;;;;;;;18.53;63.54;101436.66;5070026;28;20059;-82
2021/09/26 02:18:30;;;;;;;0.28;0.28;;;;;;;18.53;63.68;101431.28;5069690;28;20032;-84
2021/09/26 02:20:57;;;;;;;0.10;0.10;;;;;;;18.53;63.46;101423.22;5069649;28;20071;-83
2021/09/26 02:23:25;;;;;;;0.38;0.38;;;;;;;18.56;63.65;101425.81;5069738;28;20365;-82
2021/09/26 02:25:53;;;;;;;0.20;0.20;;;;;;;18.56;64.08;101415.94;5070056;28;20025;-84
2021/09/26 02:28:22;;;;;;;0.10;0.10;;;;;;;18.58;63.94;101423.94;5069670;28;20483;-85
2021/09/26 02:30:49;;;;;;;0.20;0.20;;;;;;;18.61;63.76;101425.59;5064653;28;20033;-82
2021/09/26 02:33:16;;;;;;;0.13;0.13;;;;;;;18.62;63.85;101413.91;5067969;28;20039;-83
2021/09/26 02:35:42;;;;;;;0.40;0.40;;;;;;;18.64;64.17;101423.66;5069762;28;20029;-83
2021/09/26 02:38:09;;;;;;;0.10;0.10;;;;;;;18.67;64.03;101423.50;5069593;28;20126;-84
2021/09/26 02:40:36;;;;;;;0.95;0.63;;;;;;;18.69;63.54;101415.38;5064939;28;20434;-84
2021/09/26 02:43:26;;;;;;;0.10;0.10;;;;;;;18.77;63.54;101418.59;5051875;28;20037;-84
2021/09/26 02:46:05;;;;;;;0.10;0.10;;;;;;;18.75;63.75;101418.69;5035966;28;20033;-84
2021/09/26 02:48:33;;;;;;;0.10;0.10;;;;;;;18.72;63.88;101418.81;5036173;28;20025;-84
2021/09/26 02:51:00;;;;;;;0.40;0.40;;;;;;;18.74;63.99;101419.63;5035701;28;20033;-84
2021/09/26 02:53:28;;;;;;;0.30;0.30;;;;;;;18.79;63.94;101422.09;5038282;28;20467;-85
2021/09/26 02:55:57;;;;;;;0.40;0.40;;;;;;;18.81;64.43;101425.56;5044778;28;20030;-83
2021/09/26 02:58:23;;;;;;;0.22;0.22;;;;;;;18.84;64.21;101424.53;5035919;28;20030;-85
2021/09/26 03:00:50;;;;;;;0.40;0.40;;;;;;;18.87;64.30;101429.78;5035923;28;20032;-84
2021/09/26 03:03:20;;;;;;;0.10;0.10;;;;;;;18.92;64.09;101417.91;5035763;28;20108;-84
2021/09/26 03:05:48;;;;;;;0.28;0.28;;;;;;;18.95;63.99;101411.53;5035803;28;20485;-85
2021/09/26 03:08:16;;;;;;;0.40;0.40;;;;;;;18.99;63.82;101401.53;5035432;28;20535;-85
2021/09/26 03:10:44;;;;;;;0.10;0.10;;;;;;;19.03;63.62;101403.16;5035618;28;20080;-85
2021/09/26 03:13:11;;;;;;;0.00;0.00;;;;;;;19.05;63.77;101399.44;5035745;28;20380;-84
2021/09/26 03:15:38;;;;;;;0.20;0.20;;;;;;;19.08;63.48;101403.78;5041713;28;20025;-85
2021/09/26 03:18:05;;;;;;;0.88;0.60;;;;;;;19.08;63.53;101401.13;5040567;28;20026;-85
2021/09/26 03:20:32;;;;;;;0.20;0.20;;;;;;;19.10;63.43;101406.41;5035651;28;20037;-84
2021/09/26 03:22:59;;;;;;;0.65;0.65;;;;;;;19.10;63.79;101395.66;5035177;28;20120;-86
2021/09/26 03:25:25;;;;;;;0.30;0.30;;;;;;;19.14;63.63;101394.56;5035371;28;20104;-85
2021/09/26 03:27:53;;;;;;;0.25;0.25;;;;;;;19.14;63.79;101395.44;5035641;28;20037;-85
2021/09/26 03:30:19;;;;;;;0.15;0.15;;;;;;;19.15;63.74;101388.25;5035838;28;20033;-85
2021/09/26 03:32:46;;;;;;;0.45;0.45;;;;;;;19.17;63.46;101394.44;5035013;28;20477;-85
2021/09/26 03:35:13;;;;;;;0.20;0.20;;;;;;;19.18;63.48;101401.56;5035616;28;20037;-81
2021/09/26 03:37:41;;;;;;;0.20;0.20;;;;;;;19.18;63.86;101406.94;5035140;28;20500;-83
2021/09/26 03:40:09;;;;;;;0.10;0.10;;;;;;;19.17;63.56;101397.13;5035653;28;20030;-85
2021/09/26 03:42:36;;;;;;;0.45;0.45;;;;;;;19.16;63.77;101398.06;5035127;28;20029;-85
2021/09/26 03:45:04;;;;;;;0.80;0.80;;;;;;;19.15;63.66;101393.63;5035402;28;20370;-85
2021/09/26 03:47:31;;;;;;;0.50;0.50;;;;;;;19.16;63.68;101396.22;5035046;28;20025;-85
2021/09/26 03:49:57;;;;;;;0.10;0.10;;;;;;;19.19;63.64;101393.41;5035017;28;20044;-85
2021/09/26 03:52:24;;;;;;;0.65;0.30;;;;;;;19.20;63.67;101383.53;5034894;28;20040;-85
2021/09/26 03:54:51;;;;;;;0.15;0.15;;;;;;;19.21;63.69;101380.75;5033884;28;20476;-85
2021/09/26 03:57:19;;;;;;;0.50;0.50;;;;;;;19.24;63.62;101371.72;5034990;28;20067;-85
2021/09/26 03:59:45;;;;;;;0.55;0.55;;;;;;;19.24;63.55;101369.03;5034723;28;20051;-86
2021/09/26 04:02:12;;;;;;;0.10;0.10;;;;;;;19.23;64.28;101368.13;5035008;28;20228;-84
2021/09/26 04:04:39;;;;;;;0.55;0.55;;;;;;;19.20;64.27;101364.72;5034738;28;20033;-85
2021/09/26 04:07:05;;;;;;;0.10;0.10;;;;;;;19.21;63.81;101361.97;5034532;28;20026;-83
2021/09/26 04:09:32;;;;;;;0.32;0.32;;;;;;;19.20;64.11;101384.41;5034437;28;20528;-85
2021/09/26 04:11:58;;;;;;;0.10;0.10;;;;;;;19.20;64.33;101383.53;5035351;28;20485;-86
2021/09/26 04:14:24;;;;;;;0.25;0.22;;;;;;;19.21;64.49;101380.75;5034470;28;20083;-85
2021/09/26 04:16:52;;;;;;;3.42;0.93;;;;;;;19.22;64.19;101387.03;5034559;28;20026;-85
2021/09/26 04:19:19;;;;;;;0.10;0.10;;;;;;;19.09;64.95;101386.75;5034332;28;20096;-85
2021/09/26 04:21:46;;;;;;;0.10;0.10;;;;;;;19.08;64.81;101385.84;5034351;28;20034;-85
2021/09/26 04:24:13;;;;;;;0.10;0.10;;;;;;;19.07;64.82;101378.72;5035387;28;20056;-83
2021/09/26 04:26:41;;;;;;;0.10;0.10;;;;;;;19.08;64.88;101388.53;5035576;28;20113;-86
2021/09/26 04:29:07;;;;;;;0.20;0.20;;;;;;;19.20;64.58;101392.47;5036029;28;20041;-86
2021/09/26 04:31:34;;;;;;;0.13;0.13;;;;;;;19.26;64.63;101388.59;5037852;28;20033;-85
2021/09/26 04:34:00;;;;;;;0.22;0.22;;;;;;;19.27;65.03;101389.50;5034980;28;20107;-83
2021/09/26 04:36:27;;;;;;;1.38;1.38;;;;;;;19.31;64.78;101397.31;5035379;28;20534;-85
2021/09/26 04:38:54;;;;;;;0.45;0.45;;;;;;;19.34;64.98;101390.91;5034217;28;20520;-85
2021/09/26 04:41:20;;;;;;;0.10;0.10;;;;;;;19.37;64.72;101383.59;5034356;28;20032;-85
2021/09/26 04:43:47;;;;;;;0.10;0.10;;;;;;;19.37;65.03;101394.34;5034032;28;20021;-82
2021/09/26 04:46:13;;;;;;;0.10;0.10;;;;;;;19.37;64.91;101388.97;5033760;28;20036;-82
2021/09/26 04:48:40;;;;;;;2.17;0.77;;;;;;;19.38;65.06;101382.66;5033715;28;20033;-82
2021/09/26 04:51:06;;;;;;;0.10;0.10;;;;;;;19.36;65.50;101384.53;5033664;28;20029;-83
2021/09/26 04:53:33;;;;;;;0.10;0.10;;;;;;;19.35;65.19;101388.19;5033811;28;20056;-81
2021/09/26 04:55:59;;;;;;;5.72;1.05;;;;;;;19.26;65.81;101377.00;5033851;28;20116;-79
2021/09/26 04:58:28;;;;;;;1.20;1.17;;;;;;;19.23;66.26;101375.34;5033982;28;20029;-78
2021/09/26 05:00:54;;;;;;;0.10;0.10;;;;;;;19.18;65.48;101390.81;5034368;28;20022;-79
2021/09/26 05:03:21;;;;;;;0.20;0.20;;;;;;;19.14;66.07;101390.06;5033352;28;20496;-79
2021/09/26 05:05:47;;;;;;;0.43;0.43;;;;;;;19.12;66.57;101385.72;5033696;28;20048;-79
2021/09/26 05:08:13;;;;;;;0.17;0.17;;;;;;;19.08;65.84;101385.84;5034211;28;20033;-80
2021/09/26 05:10:40;;;;;;;1.13;1.05;;;;;;;19.05;65.34;101385.13;5033392;28;20065;-79
2021/09/26 05:13:06;;;;;;;3.60;0.82;;;;;;;19.02;67.10;101382.59;5033465;28;20400;-79
2021/09/26 05:15:32;;;;;;;0.32;0.32;;;;;;;19.07;66.53;101386.78;5033815;28;20063;-78
2021/09/26 05:18:00;;;;;;;0.30;0.30;;;;;;;19.11;66.76;101375.91;5033121;28;20481;-79
2021/09/26 05:20:26;;;;;;;0.32;0.32;;;;;;;19.13;67.14;101374.00;5033269;28;20017;-79
2021/09/26 05:22:53;;;;;;;0.25;0.25;;;;;;;19.14;67.17;101373.06;5033583;28;20053;-78
2021/09/26 05:25:20;;;;;;;0.20;0.20;;;;;;;19.14;67.27;101376.66;5033754;28;20033;-79
2021/09/26 05:27:46;;;;;;;0.75;0.75;;;;;;;19.16;67.24;101379.25;5033179;28;20038;-79
2021/09/26 05:30:13;;;;;;;0.10;0.10;;;;;;;19.16;67.15;101376.56;5033262;28;20035;-79
2021/09/26 05:32:39;;;;;;;0.32;0.32;;;;;;;19.16;67.38;101381.94;5033014;28;20037;-79
2021/09/26 05:35:06;;;;;;;0.10;0.10;;;;;;;19.18;67.24;101375.56;5033291;28;20052;-79
2021/09/26 05:37:32;;;;;;;0.10;0.10;;;;;;;19.18;67.68;101372.00;5033173;28;20049;-78
2021/09/26 05:39:59;;;;;;;0.30;0.30;;;;;;;19.20;67.25;101388.91;5033082;28;20025;-80
2021/09/26 05:42:25;;;;;;;0.08;0.08;;;;;;;19.21;67.22;101385.28;5033717;28;20485;-79
2021/09/26 05:44:52;;;;;;;0.20;0.20;;;;;;;19.23;67.04;101392.31;5033066;28;20473;-79
2021/09/26 05:47:18;;;;;;;0.17;0.17;;;;;;;19.23;67.62;101389.63;5033189;28;20128;-80
2021/09/26 05:49:44;;;;;;;0.30;0.30;;;;;;;19.24;67.07;101388.69;5033223;28;20117;-79
2021/09/26 05:52:11;;;;;;;0.75;0.70;;;;;;;19.26;67.43;101385.91;5033120;28;20431;-79
2021/09/26 05:54:41;;;;;;;0.10;0.10;;;;;;;19.27;67.52;101382.28;5032839;28;20025;-79
2021/09/26 05:57:10;;;;;;;0.10;0.10;;;;;;;19.28;67.37;101392.09;5032773;28;20048;-76
2021/09/26 05:59:38;;;;;;;0.10;0.10;;;;;;;19.31;67.08;101396.47;5032797;28;20076;-81
2021/09/26 06:02:07;;;;;;;0.32;0.32;;;;;;;19.22;67.79;101398.63;5032805;28;20052;-80
2021/09/26 06:04:34;;;;;;;0.00;0.00;;;;;;;19.33;67.20;101395.44;5032642;28;20057;-80
2021/09/26 06:07:01;;;;;;;0.60;0.50;;;;;;;19.33;68.01;101384.69;5033046;28;20144;-79
2021/09/26 06:09:27;;;;;;;0.30;0.30;;;;;;;19.37;67.25;101391.66;5032871;28;20025;-80
2021/09/26 06:11:53;;;;;;;0.73;0.65;;;;;;;19.37;67.45;101383.59;5032537;28;20037;-80
2021/09/26 06:14:20;;;;;;;0.20;0.20;;;;;;;19.38;67.32;101379.97;5032475;28;20037;-79
2021/09/26 06:16:46;;;;;;;0.10;0.10;;;;;;;19.39;67.16;101387.06;5032467;28;20041;-80
2021/09/26 06:19:12;;;;;;;0.10;0.10;;;;;;;19.42;67.18;101387.88;5037778;28;20044;-80
2021/09/26 06:21:43;;;;;;;2.65;0.75;;;;;;;19.42;67.65;101395.94;5045116;28;20087;-77
2021/09/26 06:24:11;;;;;;;0.32;0.32;;;;;;;19.46;67.35;101389.47;5037758;28;21060;-79
2021/09/26 06:26:39;;;;;;;0.20;0.20;;;;;;;19.47;67.31;101388.53;5045467;28;20112;-80
2021/09/26 06:29:05;;;;;;;2.28;2.17;;;;;;;19.49;67.45;101400.94;5035410;28;20034;-80
2021/09/26 06:31:32;;;;;;;0.10;0.10;;;;;;;19.51;67.55;101392.81;5039332;28;20116;-79
2021/09/26 06:33:58;;;;;;;0.10;0.10;;;;;;;19.52;67.55;101400.78;5038769;28;20028;-79
2021/09/26 06:36:25;;;;;;;0.55;0.55;;;;;;;19.54;67.34;101403.41;5036162;28;20104;-79
2021/09/26 06:38:51;;;;;;;1.05;0.73;;;;;;;19.52;67.41;101402.59;5044078;28;20043;-79
2021/09/26 06:41:18;;;;;;;0.50;0.50;;;;;;;19.52;67.18;101400.78;5056004;28;20021;-80
2021/09/26 06:43:45;;;;;;;4.38;2.25;;;;;;;19.52;67.31;101405.28;5056373;28;20025;-79
2021/09/26 06:46:12;;;;;;;0.50;0.50;;;;;;;19.55;67.25;101402.44;5044295;28;20052;-80
2021/09/26 06:48:38;;;;;;;0.10;0.10;;;;;;;19.54;67.67;101404.28;5056100;28;20029;-80
2021/09/26 06:51:05;;;;;;;0.20;0.20;;;;;;;19.59;67.19;101404.06;5055752;28;20408;-81
2021/09/26 06:53:31;;;;;;;0.20;0.20;;;;;;;19.60;67.43;101410.28;5056088;28;20480;-79
2021/09/26 06:55:57;;;;;;;0.20;0.20;;;;;;;19.63;67.27;101407.47;5055792;28;20088;-80
2021/09/26 06:58:24;;;;;;;0.13;0.13;;;;;;;19.66;67.59;101407.31;5055449;28;20029;-77
2021/09/26 07:00:51;;;;;;;0.47;0.47;;;;;;;19.70;67.30;101412.47;5039238;28;20040;-77
2021/09/26 07:03:17;;;;;;;0.13;0.13;;;;;;;19.75;67.63;101411.34;5035849;28;20113;-77
2021/09/26 07:05:44;;;;;;;0.20;0.20;;;;;;;19.81;67.09;101416.44;5042136;28;20064;-77
2021/09/26 07:08:10;;;;;;;0.28;0.28;;;;;;;19.84;67.50;101416.31;5040173;28;20104;-78
2021/09/26 07:10:37;;;;;;;1.52;0.82;;;;;;;19.90;67.24;101405.25;5035523;28;20033;-78
2021/09/26 07:13:03;;;;;;;0.52;0.52;;;;;;;19.93;67.32;101407.78;5035336;28;20029;-78
2021/09/26 07:15:29;;;;;;;0.30;0.30;;;;;;;19.99;67.07;101410.16;5035567;28;20163;-77
2021/09/26 07:17:57;;;;;;;0.32;0.32;;;;;;;20.02;66.76;101404.59;5054437;28;20075;-79
2021/09/26 07:20:27;;;;;;;0.20;0.20;;;;;;;20.07;66.78;101412.44;5048097;28;20063;-78
2021/09/26 07:22:56;;;;;;;0.10;0.10;;;;;;;20.08;66.99;101411.50;5042252;28;20037;-81
2021/09/26 07:25:23;;;;;;;0.20;0.20;;;;;;;20.10;66.44;101417.69;5038693;28;20095;-78
2021/09/26 07:27:49;;;;;;;0.20;0.20;;;;;;;20.13;66.09;101416.66;5035666;28;20160;-77
2021/09/26 07:30:15;;;;;;;1.08;0.40;;;;;;;20.13;66.34;101416.66;5035056;28;20072;-77
2021/09/26 07:32:41;;;;;;;0.22;0.20;;;;;;;20.15;66.58;101423.69;5046142;28;20041;-78
2021/09/26 07:35:08;;;;;;;0.73;0.73;;;;;;;20.14;66.88;101424.66;5035240;28;20495;-80
2021/09/26 07:37:35;;;;;;;0.50;0.50;;;;;;;20.21;66.48;101417.13;5046051;28;20025;-78
2021/09/26 07:40:02;;;;;;;0.30;0.30;;;;;;;20.25;66.36;101423.22;5035090;28;20488;-80
2021/09/26 07:42:28;;;;;;;0.35;0.35;;;;;;;20.27;66.46;101427.56;5035167;28;20496;-80
2021/09/26 07:44:59;;;;;;;0.10;0.10;;;;;;;20.30;66.31;101421.16;5035393;28;20132;-79
2021/09/26 07:47:26;;;;;;;0.30;0.30;;;;;;;20.30;66.65;101424.72;5046532;28;20044;-79
2021/09/26 07:49:52;;;;;;;0.10;0.10;;;;;;;20.28;67.31;101428.47;5042096;28;20543;-79
2021/09/26 07:52:18;;;;;;;1.38;1.20;;;;;;;20.34;66.85;101429.00;5044093;28;20119;-79
2021/09/26 07:54:45;;;;;;;1.08;1.08;;;;;;;20.38;67.00;101440.47;5054759;28;20033;-78
2021/09/26 07:57:11;;;;;;;0.25;0.25;;;;;;;20.45;67.21;101443.72;5054842;28;20093;-80
2021/09/26 07:59:37;;;;;;;0.40;0.40;;;;;;;20.53;66.99;101446.88;5055051;28;20028;-79
2021/09/26 08:02:03;;;;;;;0.28;0.28;;;;;;;20.59;67.19;101451.09;5054676;28;20030;-80
2021/09/26 08:04:31;;;;;;;1.20;0.82;;;;;;;20.63;67.22;101456.19;5054720;28;20040;-80
2021/09/26 08:06:57;;;;;;;1.38;0.85;;;;;;;20.73;66.98;101469.22;5054929;28;20068;-79
2021/09/26 08:09:23;;;;;;;0.68;0.68;;;;;;;20.83;67.11;101475.88;5054350;28;20025;-79
2021/09/26 08:11:50;;;;;;;0.28;0.28;;;;;;;20.90;67.11;101477.28;5051857;28;20095;-78
2021/09/26 08:14:16;;;;;;;0.95;0.73;;;;;;;20.87;67.14;101490.91;5034485;28;20044;-79
2021/09/26 08:16:42;;;;;;;0.85;0.85;;;;;;;20.94;66.62;101478.84;5036369;28;20037;-79
2021/09/26 08:19:08;;;;;;;0.38;0.38;;;;;;;20.93;66.63;101471.72;5038516;28;20116;-80
2021/09/26 08:21:34;;;;;;;0.10;0.10;;;;;;;21.00;66.69;101467.75;5034811;28;20052;-79
2021/09/26 08:24:01;;;;;;;5.97;0.95;;;;;;;21.05;66.52;101472.00;5034434;28;20033;-80
2021/09/26 08:26:27;;;;;;;0.35;0.35;;;;;;;21.05;67.27;101474.69;5039976;28;20472;-85
2021/09/26 08:28:53;;;;;;;0.98;0.82;;;;;;;21.09;66.91;101469.06;5042368;28;20041;-79
2021/09/26 08:31:19;;;;;;;0.73;0.73;;;;;;;21.12;66.57;101468.03;5033924;28;20034;-79
2021/09/26 08:33:46;;;;;;;0.70;0.70;;;;;;;21.20;66.30;101457.72;5034266;28;20040;-80
2021/09/26 08:36:12;;;;;;;0.20;0.20;;;;;;;21.27;66.21;101463.63;5034090;28;20377;-80
2021/09/26 08:38:38;;;;;;;0.95;0.95;;;;;;;21.33;66.06;101463.28;5034260;28;20084;-79
2021/09/26 08:41:05;;;;;;;0.10;0.10;;;;;;;21.36;66.10;101460.44;5033235;28;20541;-79
2021/09/26 08:43:31;;;;;;;1.65;1.48;;;;;;;21.37;66.12;101467.56;5033869;28;20029;-78
2021/09/26 08:45:58;;;;;;;0.30;0.30;;;;;;;21.38;65.84;101465.72;5033887;28;20026;-80
2021/09/26 08:48:27;;;;;;;1.00;1.00;;;;;;;21.43;66.14;101471.72;5038789;28;20131;-80
2021/09/26 08:50:53;;;;;;;7.15;2.80;;;;;;;21.49;66.46;101474.06;5033752;28;20354;-78
2021/09/26 08:53:24;;;;;;;0.55;0.55;;;;;;;21.62;66.17;101468.88;5048615;28;20036;-78
2021/09/26 08:55:52;;;;;;;2.13;1.53;;;;;;;21.70;66.24;101465.78;5054020;28;20024;-78
2021/09/26 08:58:19;;;;;;;0.85;0.85;;;;;;;21.83;65.53;101465.94;5044992;28;20863;-80
2021/09/26 09:00:45;;;;;;;0.80;0.80;;;;;;;21.86;65.43;101471.13;5042611;28;20083;-80
2021/09/26 09:03:13;;;;;;;0.20;0.20;;;;;;;21.92;65.29;101468.09;5040976;28;20034;-78
2021/09/26 09:05:40;;;;;;;0.28;0.28;;;;;;;22.11;64.95;101481.41;5042620;28;20094;-79
2021/09/26 09:08:10;;;;;;;5.60;1.95;;;;;;;22.20;64.17;101470.03;5042585;28;20029;-78
2021/09/26 09:10:38;;;;;;;2.30;1.70;;;;;;;22.37;64.02;101473.56;5040764;28;20026;-79
2021/09/26 09:13:06;;;;;;;1.23;1.23;;;;;;;22.41;62.96;101477.88;5041926;28;20029;-79
2021/09/26 09:15:32;;;;;;;0.63;0.63;;;;;;;22.53;62.88;101474.44;5042480;28;20056;-79
2021/09/26 09:18:03;;;;;;;0.70;0.70;;;;;;;22.68;62.61;101477.13;5041196;28;20036;-79
2021/09/26 09:20:34;;;;;;;13.20;1.10;;;;;;;22.75;62.81;101475.81;5040993;28;20039;-79
2021/09/26 09:23:13;;;;;;;2.00;0.57;;;;;;;22.92;62.84;101481.03;5042527;28;20033;-79
2021/09/26 09:25:56;;;;;;;0.40;0.40;;;;;;;23.16;62.85;101474.22;5042506;28;20484;-79
2021/09/26 09:28:27;;;;;;;0.77;0.77;;;;;;;23.22;62.45;101479.25;5041770;28;20022;-79
2021/09/26 10:33:16;;;;;;;0.43;0.43;;;;;;;24.80;57.06;101491.38;5286774;23;20062;-86
2021/09/26 10:36:13;;;;;;;0.75;0.75;;;;;;;25.07;57.18;101495.81;4938460;29;20032;-92
2021/09/26 10:38:40;;;;;;;0.75;0.75;;;;;;;25.11;56.63;101499.16;4938634;29;20043;-88
2021/09/26 10:41:35;;;;;;;0.30;0.30;;;;;;;25.18;52.91;101495.94;4937581;29;20028;-91
2021/09/26 10:44:23;;;;;;;0.22;0.22;;;;;;;25.40;53.71;101493.53;4938650;29;20132;-87
2021/09/26 11:00:50;;;;;;;0.45;0.40;;;;;;;25.48;53.11;101492.00;5075359;23;20450;-83
2021/09/26 11:03:19;;;;;;;0.30;0.30;;;;;;;25.65;53.74;101492.59;5070361;28;20036;-81
2021/09/26 11:05:49;;;;;;;0.13;0.13;;;;;;;25.79;53.89;101487.00;5058053;28;20037;-83
2021/09/26 11:11:04;;;;;;;0.57;0.57;;;;;;;25.86;52.52;101489.25;5074686;28;20488;-84
2021/09/26 11:13:34;;;;;;;0.63;0.63;;;;;;;25.89;52.89;101499.91;5075164;28;20037;-86
2021/09/26 11:27:17;;;;;;;1.45;0.50;;;;;;;26.37;50.37;101491.75;5090894;28;20486;-85
2021/09/26 11:35:25;;;;;;;2.95;0.90;;;;;;;26.47;50.14;101489.22;5090796;27;20439;-89
2021/09/26 11:37:54;;;;;;;0.52;0.52;;;;;;;26.48;49.25;101485.47;5070540;28;20499;-86
2021/09/26 11:40:29;;;;;;;0.28;0.28;;;;;;;26.54;50.23;101484.16;5060230;28;20518;-83
2021/09/26 11:42:57;;;;;;;0.75;0.75;;;;;;;26.60;49.70;101479.09;5050678;28;20033;-82
2021/09/26 11:45:32;;;;;;;1.05;0.95;;;;;;;26.63;47.94;101473.44;5050864;28;20464;-83
2021/09/26 11:48:01;;;;;;;0.43;0.43;;;;;;;26.65;49.12;101470.59;5050798;28;20035;-90
2021/09/26 11:50:32;;;;;;;0.13;0.13;;;;;;;26.63;47.70;101469.81;5050217;28;20029;-86
2021/09/26 11:52:59;;;;;;;0.67;0.67;;;;;;;26.69;48.49;101465.78;5050393;28;20035;-82
2021/09/26 11:55:30;;;;;;;0.40;0.40;;;;;;;26.68;47.38;101470.34;5050764;28;20486;-84
2021/09/26 11:57:58;;;;;;;0.10;0.10;;;;;;;26.70;48.07;101468.38;5050634;28;20376;-83
2021/09/26 12:00:28;;;;;;;0.20;0.20;;;;;;;26.71;46.89;101464.66;5050042;28;20033;-82
2021/09/26 12:02:55;;;;;;;0.10;0.10;;;;;;;26.74;48.18;101464.47;5050508;28;20107;-84
2021/09/26 12:05:34;;;;;;;0.55;0.40;;;;;;;26.83;47.52;101475.59;5050541;28;20021;-84
2021/09/26 12:08:00;;;;;;;1.38;1.33;;;;;;;26.79;48.07;101473.13;5050459;28;20021;-88
2021/09/26 12:10:27;;;;;;;0.80;0.80;;;;;;;26.89;48.06;101467.81;5049993;28;20530;-82
2021/09/26 12:12:53;;;;;;;0.10;0.10;;;;;;;26.89;46.35;101472.38;5049829;28;20037;-89
2021/09/26 12:15:19;;;;;;;0.95;0.95;;;;;;;26.86;47.33;101472.63;5050334;28;20092;-83
2021/09/26 12:17:53;;;;;;;0.10;0.10;;;;;;;26.88;47.04;101470.63;5049981;28;20029;-83
2021/09/26 12:20:22;;;;;;;0.45;0.45;;;;;;;26.98;47.52;101468.94;5049562;28;20546;-83
2021/09/26 12:22:52;;;;;;;0.52;0.52;;;;;;;27.04;47.53;101471.16;5049927;28;20044;-83
2021/09/26 12:25:39;;;;;;;1.25;1.15;;;;;;;27.21;47.30;101471.66;5050083;28;20025;-83
2021/09/26 12:28:10;;;;;;;0.60;0.60;;;;;;;27.24;46.64;101465.94;5049905;28;20018;-87
2021/09/26 12:33:31;;;;;;;0.10;0.10;;;;;;;27.40;47.45;101473.75;5131990;27;20445;-85
2021/09/26 12:36:02;;;;;;;1.65;0.82;;;;;;;27.39;47.62;101474.72;5131877;28;20106;-85
2021/09/26 12:41:26;;;;;;;0.10;0.10;;;;;;;27.15;47.50;101469.44;5073962;27;20411;-87
2021/09/26 12:43:58;;;;;;;2.58;0.60;;;;;;;27.01;47.13;101471.41;5070751;28;20083;-85
2021/09/26 12:46:29;;;;;;;0.38;0.38;;;;;;;26.90;47.30;101468.69;5069541;28;20392;-87
2021/09/26 12:48:56;;;;;;;0.43;0.43;;;;;;;26.87;46.15;101471.66;5071859;28;20425;-83
2021/09/26 12:51:31;;;;;;;0.20;0.20;;;;;;;26.67;47.05;101471.34;5061657;28;20035;-83
2021/09/26 12:54:04;;;;;;;0.30;0.30;;;;;;;26.48;47.28;101470.06;5070549;28;20057;-82
2021/09/26 12:56:36;;;;;;;0.10;0.10;;;;;;;26.54;47.57;101473.28;5070548;28;20033;-82
2021/09/26 12:59:16;;;;;;;;;;;;;;;26.56;47.02;101474.88;5070861;28;20033;-83
2021/09/26 13:01:42;;;;;;;0.43;0.43;;;;;;;26.35;47.83;101463.84;5070694;28;19920;-83
2021/09/26 13:04:16;;;;;;;0.20;0.20;;;;;;;26.42;47.59;101464.25;5070450;28;20066;-82
2021/09/26 13:06:54;;;;;;;0.20;0.20;;;;;;;26.52;48.05;101462.53;5065710;28;20025;-81
2021/09/26 13:09:29;;;;;;;0.25;0.25;;;;;;;26.62;49.39;101468.97;5070237;28;20452;-83
2021/09/26 13:11:56;;;;;;;0.20;0.20;;;;;;;26.63;48.46;101468.00;5070196;28;20041;-84
2021/09/26 13:22:31;;;;;;;0.55;0.55;;;;;;;26.71;47.93;101470.09;5070591;28;20833;-83
2021/09/26 13:27:54;;;;;;;0.63;0.63;;;;;;;26.86;47.92;101473.50;5070786;28;20454;-83
2021/09/26 13:33:34;;;;;;;0.20;0.20;;;;;;;26.88;47.38;101465.19;5091032;27;20433;-81
2021/09/26 13:39:43;;;;;;;0.10;0.10;;;;;;;26.85;47.64;101465.47;5070677;28;20390;-79
2021/09/26 13:42:35;;;;;;;0.40;0.40;;;;;;;26.84;46.88;101470.00;5071350;28;20043;-81
2021/09/26 13:45:08;;;;;;;0.40;0.40;;;;;;;26.83;47.02;101464.72;5071225;28;20033;-80